sensor_id;sensor_type;location;lat;lon;timestamp;temperature;humidity
4615;DHT22;2320;51.362;6.946;2023-04-03T00:02:24;1.10;99.90
4615;DHT22;2320;51.362;6.946;2023-04-03T00:04:49;1.00;99.90
4615;DHT22;2320;51.362;6.946;2023-04-03T00:07:15;1.00;99.90
4615;DHT22;2320;51.362;6.946;2023-04-03T00:09:40;0.90;99.90
4615;DHT22;2320;51.362;6.946;2023-04-03T00:12:06;0.90;99.90
4615;DHT22;2320;51.362;6.946;2023-04-03T00:14:31;1.00;99.90
4615;DHT22;2320;51.362;6.946;2023-04-03T00:16:57;0.90;99.90
4615;DHT22;2320;51.362;6.946;2023-04-03T00:19:22;0.90;99.90
4615;DHT22;2320;51.362;6.946;2023-04-03T00:21:48;0.90;99.90
4615;DHT22;2320;51.362;6.946;2023-04-03T00:24:13;0.80;99.90
4615;DHT22;2320;51.362;6.946;2023-04-03T00:26:39;0.90;99.90
4615;DHT22;2320;51.362;6.946;2023-04-03T00:29:04;0.90;99.90
4615;DHT22;2320;51.362;6.946;2023-04-03T00:31:30;0.80;99.90
4615;DHT22;2320;51.362;6.946;2023-04-03T00:33:55;0.80;99.90
4615;DHT22;2320;51.362;6.946;2023-04-03T00:36:21;0.80;99.90
4615;DHT22;2320;51.362;6.946;2023-04-03T00:38:46;0.90;99.90
4615;DHT22;2320;51.362;6.946;2023-04-03T00:41:11;0.90;99.90
4615;DHT22;2320;51.362;6.946;2023-04-03T00:43:37;0.90;99.90
4615;DHT22;2320;51.362;6.946;2023-04-03T00:46:03;0.80;99.90
4615;DHT22;2320;51.362;6.946;2023-04-03T00:48:36;0.80;99.90
4615;DHT22;2320;51.362;6.946;2023-04-03T00:51:04;0.90;99.90
4615;DHT22;2320;51.362;6.946;2023-04-03T00:53:32;0.90;99.90
4615;DHT22;2320;51.362;6.946;2023-04-03T00:55:58;0.80;99.90
4615;DHT22;2320;51.362;6.946;2023-04-03T00:58:30;0.70;99.90
4615;DHT22;2320;51.362;6.946;2023-04-03T01:00:58;0.70;99.90
4615;DHT22;2320;51.362;6.946;2023-04-03T01:03:23;0.80;99.90
4615;DHT22;2320;51.362;6.946;2023-04-03T01:05:49;0.80;99.90
4615;DHT22;2320;51.362;6.946;2023-04-03T01:08:15;0.70;99.90
4615;DHT22;2320;51.362;6.946;2023-04-03T01:10:40;0.60;99.90
4615;DHT22;2320;51.362;6.946;2023-04-03T01:13:17;0.70;99.90
4615;DHT22;2320;51.362;6.946;2023-04-03T01:15:43;0.70;99.90
4615;DHT22;2320;51.362;6.946;2023-04-03T01:18:09;0.80;99.90
4615;DHT22;2320;51.362;6.946;2023-04-03T01:26:04;0.80;99.90
4615;DHT22;2320;51.362;6.946;2023-04-03T01:28:31;0.80;99.90
4615;DHT22;2320;51.362;6.946;2023-04-03T01:33:28;0.70;99.90
4615;DHT22;2320;51.362;6.946;2023-04-03T01:35:53;0.80;99.90
4615;DHT22;2320;51.362;6.946;2023-04-03T01:38:18;0.70;99.90
4615;DHT22;2320;51.362;6.946;2023-04-03T01:40:44;0.70;99.90
4615;DHT22;2320;51.362;6.946;2023-04-03T01:43:10;0.70;99.90
4615;DHT22;2320;51.362;6.946;2023-04-03T01:45:35;0.70;99.90
4615;DHT22;2320;51.362;6.946;2023-04-03T01:48:01;0.80;99.90
4615;DHT22;2320;51.362;6.946;2023-04-03T01:50:26;0.90;99.90
4615;DHT22;2320;51.362;6.946;2023-04-03T01:52:52;0.90;99.90
4615;DHT22;2320;51.362;6.946;2023-04-03T01:55:17;0.80;99.90
4615;DHT22;2320;51.362;6.946;2023-04-03T01:57:43;0.70;99.90
4615;DHT22;2320;51.362;6.946;2023-04-03T02:00:08;0.70;99.90
4615;DHT22;2320;51.362;6.946;2023-04-03T02:02:34;0.80;99.90
4615;DHT22;2320;51.362;6.946;2023-04-03T02:05:00;0.70;99.90
4615;DHT22;2320;51.362;6.946;2023-04-03T02:07:25;0.60;99.90
4615;DHT22;2320;51.362;6.946;2023-04-03T02:09:51;0.50;99.90
4615;DHT22;2320;51.362;6.946;2023-04-03T02:12:16;0.40;99.90
4615;DHT22;2320;51.362;6.946;2023-04-03T02:14:42;0.50;99.90
4615;DHT22;2320;51.362;6.946;2023-04-03T02:17:07;0.60;99.90
4615;DHT22;2320;51.362;6.946;2023-04-03T02:19:37;0.60;99.90
4615;DHT22;2320;51.362;6.946;2023-04-03T02:22:03;0.60;99.90
4615;DHT22;2320;51.362;6.946;2023-04-03T02:24:28;0.60;99.90
4615;DHT22;2320;51.362;6.946;2023-04-03T02:26:54;0.50;99.90
4615;DHT22;2320;51.362;6.946;2023-04-03T02:29:19;0.50;99.90
4615;DHT22;2320;51.362;6.946;2023-04-03T02:31:45;0.40;99.90
4615;DHT22;2320;51.362;6.946;2023-04-03T02:34:10;0.50;99.90
4615;DHT22;2320;51.362;6.946;2023-04-03T02:36:36;0.60;99.90
4615;DHT22;2320;51.362;6.946;2023-04-03T02:39:01;0.70;99.90
4615;DHT22;2320;51.362;6.946;2023-04-03T02:41:27;0.80;99.90
4615;DHT22;2320;51.362;6.946;2023-04-03T02:43:58;0.80;99.90
4615;DHT22;2320;51.362;6.946;2023-04-03T02:46:24;0.80;99.90
4615;DHT22;2320;51.362;6.946;2023-04-03T02:48:49;0.60;99.90
4615;DHT22;2320;51.362;6.946;2023-04-03T02:51:15;0.50;99.90
4615;DHT22;2320;51.362;6.946;2023-04-03T02:53:40;0.70;99.90
4615;DHT22;2320;51.362;6.946;2023-04-03T02:56:06;0.80;99.90
4615;DHT22;2320;51.362;6.946;2023-04-03T02:58:31;0.70;99.90
4615;DHT22;2320;51.362;6.946;2023-04-03T03:00:57;0.70;99.90
4615;DHT22;2320;51.362;6.946;2023-04-03T03:03:22;0.60;99.90
4615;DHT22;2320;51.362;6.946;2023-04-03T03:05:48;0.60;99.90
4615;DHT22;2320;51.362;6.946;2023-04-03T03:08:13;0.60;99.90
4615;DHT22;2320;51.362;6.946;2023-04-03T03:10:39;0.60;99.90
4615;DHT22;2320;51.362;6.946;2023-04-03T03:13:04;0.50;99.90
4615;DHT22;2320;51.362;6.946;2023-04-03T03:15:30;0.40;99.90
4615;DHT22;2320;51.362;6.946;2023-04-03T03:17:55;0.40;99.90
4615;DHT22;2320;51.362;6.946;2023-04-03T03:20:21;0.50;99.90
4615;DHT22;2320;51.362;6.946;2023-04-03T03:22:46;0.40;99.90
4615;DHT22;2320;51.362;6.946;2023-04-03T03:25:11;0.30;99.90
4615;DHT22;2320;51.362;6.946;2023-04-03T03:27:37;0.20;99.90
4615;DHT22;2320;51.362;6.946;2023-04-03T03:30:03;0.10;99.90
4615;DHT22;2320;51.362;6.946;2023-04-03T03:32:28;0.10;99.90
4615;DHT22;2320;51.362;6.946;2023-04-03T03:34:54;0.30;99.90
4615;DHT22;2320;51.362;6.946;2023-04-03T03:37:20;0.30;99.90
4615;DHT22;2320;51.362;6.946;2023-04-03T03:39:45;0.20;99.90
4615;DHT22;2320;51.362;6.946;2023-04-03T03:42:10;0.00;99.90
4615;DHT22;2320;51.362;6.946;2023-04-03T03:44:36;0.00;99.90
4615;DHT22;2320;51.362;6.946;2023-04-03T03:47:01;0.00;99.90
4615;DHT22;2320;51.362;6.946;2023-04-03T03:49:28;0.20;99.90
4615;DHT22;2320;51.362;6.946;2023-04-03T03:51:53;0.20;99.90
4615;DHT22;2320;51.362;6.946;2023-04-03T03:54:19;0.30;99.90
4615;DHT22;2320;51.362;6.946;2023-04-03T03:56:44;0.30;99.90
4615;DHT22;2320;51.362;6.946;2023-04-03T03:59:11;0.10;99.90
4615;DHT22;2320;51.362;6.946;2023-04-03T04:01:37;0.10;99.90
4615;DHT22;2320;51.362;6.946;2023-04-03T04:04:02;0.10;99.90
4615;DHT22;2320;51.362;6.946;2023-04-03T04:06:28;0.10;99.90
4615;DHT22;2320;51.362;6.946;2023-04-03T04:08:53;0.20;99.90
4615;DHT22;2320;51.362;6.946;2023-04-03T04:11:19;0.30;99.90
4615;DHT22;2320;51.362;6.946;2023-04-03T04:13:45;0.40;99.90
4615;DHT22;2320;51.362;6.946;2023-04-03T04:16:11;0.40;99.90
4615;DHT22;2320;51.362;6.946;2023-04-03T04:18:36;0.30;99.90
4615;DHT22;2320;51.362;6.946;2023-04-03T04:21:02;0.20;99.90
4615;DHT22;2320;51.362;6.946;2023-04-03T04:23:27;0.20;99.90
4615;DHT22;2320;51.362;6.946;2023-04-03T04:25:53;0.10;99.90
4615;DHT22;2320;51.362;6.946;2023-04-03T04:28:18;0.00;99.90
4615;DHT22;2320;51.362;6.946;2023-04-03T04:30:44;0.30;99.90
4615;DHT22;2320;51.362;6.946;2023-04-03T04:33:10;0.20;99.90
4615;DHT22;2320;51.362;6.946;2023-04-03T04:35:35;0.20;99.90
4615;DHT22;2320;51.362;6.946;2023-04-03T04:38:00;0.20;99.90
4615;DHT22;2320;51.362;6.946;2023-04-03T04:40:26;0.50;99.90
4615;DHT22;2320;51.362;6.946;2023-04-03T04:42:52;0.50;99.90
4615;DHT22;2320;51.362;6.946;2023-04-03T04:45:17;0.50;99.90
4615;DHT22;2320;51.362;6.946;2023-04-03T04:47:43;0.60;99.90
4615;DHT22;2320;51.362;6.946;2023-04-03T04:50:08;0.60;99.90
4615;DHT22;2320;51.362;6.946;2023-04-03T04:52:34;0.60;99.90
4615;DHT22;2320;51.362;6.946;2023-04-03T04:54:59;0.80;99.90
4615;DHT22;2320;51.362;6.946;2023-04-03T04:57:25;0.80;99.90
4615;DHT22;2320;51.362;6.946;2023-04-03T04:59:51;0.80;99.90
4615;DHT22;2320;51.362;6.946;2023-04-03T05:02:16;0.70;99.90
4615;DHT22;2320;51.362;6.946;2023-04-03T05:04:42;0.80;99.90
4615;DHT22;2320;51.362;6.946;2023-04-03T05:07:07;0.80;99.90
4615;DHT22;2320;51.362;6.946;2023-04-03T05:09:33;0.80;99.90
4615;DHT22;2320;51.362;6.946;2023-04-03T05:11:58;0.90;99.90
4615;DHT22;2320;51.362;6.946;2023-04-03T05:14:24;0.70;99.90
4615;DHT22;2320;51.362;6.946;2023-04-03T05:16:49;0.70;99.90
4615;DHT22;2320;51.362;6.946;2023-04-03T05:19:18;0.80;99.90
4615;DHT22;2320;51.362;6.946;2023-04-03T05:21:43;0.70;99.90
4615;DHT22;2320;51.362;6.946;2023-04-03T05:24:09;0.90;99.90
4615;DHT22;2320;51.362;6.946;2023-04-03T05:26:35;0.80;99.90
4615;DHT22;2320;51.362;6.946;2023-04-03T05:29:00;0.70;99.90
4615;DHT22;2320;51.362;6.946;2023-04-03T05:31:26;0.70;99.90
4615;DHT22;2320;51.362;6.946;2023-04-03T05:33:54;0.80;99.90
4615;DHT22;2320;51.362;6.946;2023-04-03T05:36:20;1.00;99.90
4615;DHT22;2320;51.362;6.946;2023-04-03T05:38:45;1.30;99.90
4615;DHT22;2320;51.362;6.946;2023-04-03T05:41:11;1.50;99.90
4615;DHT22;2320;51.362;6.946;2023-04-03T05:43:36;1.60;99.90
4615;DHT22;2320;51.362;6.946;2023-04-03T05:46:05;1.80;99.90
4615;DHT22;2320;51.362;6.946;2023-04-03T05:48:32;1.80;99.90
4615;DHT22;2320;51.362;6.946;2023-04-03T05:50:57;2.00;99.90
4615;DHT22;2320;51.362;6.946;2023-04-03T05:53:27;2.20;99.90
4615;DHT22;2320;51.362;6.946;2023-04-03T05:55:53;2.20;99.90
4615;DHT22;2320;51.362;6.946;2023-04-03T05:58:19;2.70;99.90
4615;DHT22;2320;51.362;6.946;2023-04-03T06:00:44;3.60;99.90
4615;DHT22;2320;51.362;6.946;2023-04-03T06:03:10;4.70;99.90
4615;DHT22;2320;51.362;6.946;2023-04-03T06:05:36;4.90;99.90
4615;DHT22;2320;51.362;6.946;2023-04-03T06:08:01;5.60;99.90
4615;DHT22;2320;51.362;6.946;2023-04-03T06:10:28;6.20;99.90
4615;DHT22;2320;51.362;6.946;2023-04-03T06:12:53;7.20;99.90
4615;DHT22;2320;51.362;6.946;2023-04-03T06:15:19;7.60;99.90
4615;DHT22;2320;51.362;6.946;2023-04-03T06:17:45;7.60;99.90
4615;DHT22;2320;51.362;6.946;2023-04-03T06:20:11;8.20;99.90
4615;DHT22;2320;51.362;6.946;2023-04-03T06:22:37;7.60;99.90
4615;DHT22;2320;51.362;6.946;2023-04-03T06:25:02;7.60;99.90
4615;DHT22;2320;51.362;6.946;2023-04-03T06:27:28;7.80;99.90
4615;DHT22;2320;51.362;6.946;2023-04-03T06:29:54;8.30;99.90
4615;DHT22;2320;51.362;6.946;2023-04-03T06:32:19;8.40;99.90
4615;DHT22;2320;51.362;6.946;2023-04-03T06:34:45;8.20;99.90
4615;DHT22;2320;51.362;6.946;2023-04-03T06:37:17;8.50;99.90
4615;DHT22;2320;51.362;6.946;2023-04-03T06:39:43;8.70;99.90
4615;DHT22;2320;51.362;6.946;2023-04-03T06:42:09;9.20;99.90
4615;DHT22;2320;51.362;6.946;2023-04-03T06:44:35;9.80;99.90
4615;DHT22;2320;51.362;6.946;2023-04-03T06:47:00;9.50;99.90
4615;DHT22;2320;51.362;6.946;2023-04-03T06:49:26;9.60;99.90
4615;DHT22;2320;51.362;6.946;2023-04-03T06:51:51;9.00;99.90
4615;DHT22;2320;51.362;6.946;2023-04-03T06:54:17;9.10;99.90
4615;DHT22;2320;51.362;6.946;2023-04-03T06:56:43;9.40;99.90
4615;DHT22;2320;51.362;6.946;2023-04-03T06:59:09;9.70;99.90
4615;DHT22;2320;51.362;6.946;2023-04-03T07:01:35;10.00;99.90
4615;DHT22;2320;51.362;6.946;2023-04-03T07:04:01;9.90;99.90
4615;DHT22;2320;51.362;6.946;2023-04-03T07:06:26;10.20;99.90
4615;DHT22;2320;51.362;6.946;2023-04-03T07:08:52;10.30;99.90
4615;DHT22;2320;51.362;6.946;2023-04-03T07:11:18;10.40;99.90
4615;DHT22;2320;51.362;6.946;2023-04-03T07:13:44;10.70;99.90
4615;DHT22;2320;51.362;6.946;2023-04-03T07:16:09;11.70;99.90
4615;DHT22;2320;51.362;6.946;2023-04-03T07:18:36;11.50;99.90
4615;DHT22;2320;51.362;6.946;2023-04-03T07:21:01;11.60;99.90
4615;DHT22;2320;51.362;6.946;2023-04-03T07:23:27;11.50;99.90
4615;DHT22;2320;51.362;6.946;2023-04-03T07:25:53;12.10;99.90
4615;DHT22;2320;51.362;6.946;2023-04-03T07:28:18;12.20;99.90
4615;DHT22;2320;51.362;6.946;2023-04-03T07:33:10;12.10;99.90
4615;DHT22;2320;51.362;6.946;2023-04-03T07:35:36;11.50;99.90
4615;DHT22;2320;51.362;6.946;2023-04-03T07:38:02;11.60;99.90
4615;DHT22;2320;51.362;6.946;2023-04-03T07:40:27;11.70;99.90
4615;DHT22;2320;51.362;6.946;2023-04-03T07:42:53;12.70;99.90
4615;DHT22;2320;51.362;6.946;2023-04-03T07:45:18;12.10;99.90
4615;DHT22;2320;51.362;6.946;2023-04-03T07:47:44;11.20;99.90
4615;DHT22;2320;51.362;6.946;2023-04-03T07:50:10;11.50;99.90
4615;DHT22;2320;51.362;6.946;2023-04-03T07:52:35;11.40;99.90
4615;DHT22;2320;51.362;6.946;2023-04-03T07:55:01;11.40;99.90
4615;DHT22;2320;51.362;6.946;2023-04-03T07:57:26;11.10;99.90
4615;DHT22;2320;51.362;6.946;2023-04-03T07:59:51;10.90;99.90
4615;DHT22;2320;51.362;6.946;2023-04-03T08:02:17;11.10;99.90
4615;DHT22;2320;51.362;6.946;2023-04-03T08:04:42;11.50;99.90
4615;DHT22;2320;51.362;6.946;2023-04-03T08:07:08;11.90;99.90
4615;DHT22;2320;51.362;6.946;2023-04-03T08:09:33;11.90;99.90
4615;DHT22;2320;51.362;6.946;2023-04-03T08:11:59;12.20;99.90
4615;DHT22;2320;51.362;6.946;2023-04-03T08:14:24;12.20;99.90
4615;DHT22;2320;51.362;6.946;2023-04-03T08:16:50;12.10;99.90
4615;DHT22;2320;51.362;6.946;2023-04-03T08:19:15;12.00;99.90
4615;DHT22;2320;51.362;6.946;2023-04-03T08:21:43;12.10;99.90
4615;DHT22;2320;51.362;6.946;2023-04-03T08:24:09;13.10;99.90
4615;DHT22;2320;51.362;6.946;2023-04-03T08:26:35;13.20;99.90
4615;DHT22;2320;51.362;6.946;2023-04-03T08:29:00;13.50;99.90
4615;DHT22;2320;51.362;6.946;2023-04-03T08:31:26;13.40;97.80
4615;DHT22;2320;51.362;6.946;2023-04-03T08:33:51;13.10;95.50
4615;DHT22;2320;51.362;6.946;2023-04-03T08:36:21;12.90;97.30
4615;DHT22;2320;51.362;6.946;2023-04-03T08:38:47;11.80;97.90
4615;DHT22;2320;51.362;6.946;2023-04-03T08:41:14;12.50;98.90
4615;DHT22;2320;51.362;6.946;2023-04-03T08:46:06;12.10;99.10
4615;DHT22;2320;51.362;6.946;2023-04-03T08:48:36;12.90;98.30
4615;DHT22;2320;51.362;6.946;2023-04-03T08:51:08;13.20;95.80
4615;DHT22;2320;51.362;6.946;2023-04-03T08:53:37;12.10;94.10
4615;DHT22;2320;51.362;6.946;2023-04-03T08:56:06;11.70;94.40
4615;DHT22;2320;51.362;6.946;2023-04-03T08:58:33;12.00;96.50
4615;DHT22;2320;51.362;6.946;2023-04-03T09:01:02;13.00;96.40
4615;DHT22;2320;51.362;6.946;2023-04-03T09:03:30;12.80;93.90
4615;DHT22;2320;51.362;6.946;2023-04-03T09:08:43;12.50;93.20
4615;DHT22;2320;51.362;6.946;2023-04-03T09:11:15;12.40;92.70
4615;DHT22;2320;51.362;6.946;2023-04-03T09:16:17;12.10;92.10
4615;DHT22;2320;51.362;6.946;2023-04-03T09:18:45;12.80;88.10
4615;DHT22;2320;51.362;6.946;2023-04-03T09:21:27;12.80;87.60
4615;DHT22;2320;51.362;6.946;2023-04-03T09:23:58;12.40;88.50
4615;DHT22;2320;51.362;6.946;2023-04-03T09:26:35;12.80;86.70
4615;DHT22;2320;51.362;6.946;2023-04-03T09:29:04;12.80;83.30
4615;DHT22;2320;51.362;6.946;2023-04-03T09:31:40;13.10;83.80
4615;DHT22;2320;51.362;6.946;2023-04-03T09:34:09;13.90;82.70
4615;DHT22;2320;51.362;6.946;2023-04-03T09:36:38;13.80;81.60
4615;DHT22;2320;51.362;6.946;2023-04-03T09:39:05;14.30;81.00
4615;DHT22;2320;51.362;6.946;2023-04-03T09:41:31;14.50;74.50
4615;DHT22;2320;51.362;6.946;2023-04-03T09:43:58;14.90;76.80
4615;DHT22;2320;51.362;6.946;2023-04-03T09:46:33;13.90;69.90
4615;DHT22;2320;51.362;6.946;2023-04-03T09:49:00;13.40;71.50
4615;DHT22;2320;51.362;6.946;2023-04-03T09:51:26;13.30;71.70
4615;DHT22;2320;51.362;6.946;2023-04-03T09:53:53;12.70;72.50
4615;DHT22;2320;51.362;6.946;2023-04-03T09:58:51;13.50;69.70
4615;DHT22;2320;51.362;6.946;2023-04-03T10:01:27;13.30;70.20
4615;DHT22;2320;51.362;6.946;2023-04-03T10:04:03;12.90;70.30
4615;DHT22;2320;51.362;6.946;2023-04-03T10:06:29;13.10;72.80
4615;DHT22;2320;51.362;6.946;2023-04-03T10:08:59;12.90;71.30
4615;DHT22;2320;51.362;6.946;2023-04-03T10:11:26;12.80;74.60
4615;DHT22;2320;51.362;6.946;2023-04-03T10:13:53;12.90;74.70
4615;DHT22;2320;51.362;6.946;2023-04-03T10:16:20;12.30;74.20
4615;DHT22;2320;51.362;6.946;2023-04-03T10:19:30;13.10;74.80
4615;DHT22;2320;51.362;6.946;2023-04-03T10:21:50;12.80;72.20
4615;DHT22;2320;51.362;6.946;2023-04-03T10:24:28;12.20;74.60
4615;DHT22;2320;51.362;6.946;2023-04-03T10:34:40;12.60;71.70
4615;DHT22;2320;51.362;6.946;2023-04-03T10:39:57;12.90;73.60
4615;DHT22;2320;51.362;6.946;2023-04-03T10:47:53;11.90;68.60
4615;DHT22;2320;51.362;6.946;2023-04-03T10:50:33;12.40;70.70
4615;DHT22;2320;51.362;6.946;2023-04-03T10:57:52;12.00;70.10
4615;DHT22;2320;51.362;6.946;2023-04-03T11:00:20;11.80;71.70
4615;DHT22;2320;51.362;6.946;2023-04-03T11:02:56;11.80;72.10
4615;DHT22;2320;51.362;6.946;2023-04-03T11:08:29;11.70;77.10
4615;DHT22;2320;51.362;6.946;2023-04-03T11:10:53;11.00;77.60
4615;DHT22;2320;51.362;6.946;2023-04-03T11:13:34;10.20;77.20
4615;DHT22;2320;51.362;6.946;2023-04-03T11:15:59;10.10;82.40
4615;DHT22;2320;51.362;6.946;2023-04-03T11:18:39;10.10;83.10
4615;DHT22;2320;51.362;6.946;2023-04-03T11:23:44;9.70;88.00
4615;DHT22;2320;51.362;6.946;2023-04-03T11:26:11;9.60;87.50
4615;DHT22;2320;51.362;6.946;2023-04-03T11:28:38;9.40;90.00
4615;DHT22;2320;51.362;6.946;2023-04-03T11:31:22;9.50;87.20
4615;DHT22;2320;51.362;6.946;2023-04-03T11:36:24;9.20;90.30
4615;DHT22;2320;51.362;6.946;2023-04-03T11:38:52;9.20;90.30
4615;DHT22;2320;51.362;6.946;2023-04-03T11:41:24;9.30;91.10
4615;DHT22;2320;51.362;6.946;2023-04-03T11:43:57;9.00;84.70
4615;DHT22;2320;51.362;6.946;2023-04-03T11:46:26;8.80;88.20
4615;DHT22;2320;51.362;6.946;2023-04-03T11:49:49;8.90;88.70
4615;DHT22;2320;51.362;6.946;2023-04-03T11:51:53;8.90;87.90
4615;DHT22;2320;51.362;6.946;2023-04-03T12:02:54;8.70;84.00
4615;DHT22;2320;51.362;6.946;2023-04-03T12:05:24;8.50;85.10
4615;DHT22;2320;51.362;6.946;2023-04-03T12:10:34;8.90;87.90
4615;DHT22;2320;51.362;6.946;2023-04-03T12:13:00;9.00;80.80
4615;DHT22;2320;51.362;6.946;2023-04-03T12:23:27;8.90;78.30
4615;DHT22;2320;51.362;6.946;2023-04-03T12:25:59;8.90;79.60
4615;DHT22;2320;51.362;6.946;2023-04-03T12:28:25;9.00;80.70
4615;DHT22;2320;51.362;6.946;2023-04-03T12:30:51;8.80;82.70
4615;DHT22;2320;51.362;6.946;2023-04-03T12:35:47;8.80;82.10
4615;DHT22;2320;51.362;6.946;2023-04-03T12:40:48;9.00;81.80
4615;DHT22;2320;51.362;6.946;2023-04-03T12:48:28;8.90;84.00
4615;DHT22;2320;51.362;6.946;2023-04-03T12:50:55;9.00;85.80
4615;DHT22;2320;51.362;6.946;2023-04-03T12:53:23;8.90;82.00
4615;DHT22;2320;51.362;6.946;2023-04-03T12:55:54;8.80;82.80
4615;DHT22;2320;51.362;6.946;2023-04-03T12:58:24;8.80;84.80
4615;DHT22;2320;51.362;6.946;2023-04-03T13:01:09;8.70;84.70
4615;DHT22;2320;51.362;6.946;2023-04-03T13:03:37;8.90;86.20
4615;DHT22;2320;51.362;6.946;2023-04-03T13:06:04;8.80;85.80
4615;DHT22;2320;51.362;6.946;2023-04-03T13:08:29;8.90;86.00
4615;DHT22;2320;51.362;6.946;2023-04-03T13:13:21;8.80;86.10
4615;DHT22;2320;51.362;6.946;2023-04-03T13:15:48;8.90;86.90
4615;DHT22;2320;51.362;6.946;2023-04-03T13:18:21;8.80;84.80
4615;DHT22;2320;51.362;6.946;2023-04-03T13:20:46;8.70;84.80
4615;DHT22;2320;51.362;6.946;2023-04-03T13:23:13;8.80;85.70
4615;DHT22;2320;51.362;6.946;2023-04-03T13:25:41;8.80;85.90
4615;DHT22;2320;51.362;6.946;2023-04-03T13:28:09;8.80;86.00
4615;DHT22;2320;51.362;6.946;2023-04-03T13:30:37;8.80;86.10
4615;DHT22;2320;51.362;6.946;2023-04-03T13:33:04;8.80;84.50
4615;DHT22;2320;51.362;6.946;2023-04-03T13:35:39;8.80;85.60
4615;DHT22;2320;51.362;6.946;2023-04-03T13:38:19;8.80;85.50
4615;DHT22;2320;51.362;6.946;2023-04-03T13:40:57;8.70;87.30
4615;DHT22;2320;51.362;6.946;2023-04-03T13:43:24;8.70;86.80
4615;DHT22;2320;51.362;6.946;2023-04-03T13:45:57;8.80;86.60
4615;DHT22;2320;51.362;6.946;2023-04-03T13:48:23;9.00;85.50
4615;DHT22;2320;51.362;6.946;2023-04-03T13:50:56;8.90;83.20
4615;DHT22;2320;51.362;6.946;2023-04-03T13:53:22;8.90;85.30
4615;DHT22;2320;51.362;6.946;2023-04-03T13:56:53;8.80;87.00
4615;DHT22;2320;51.362;6.946;2023-04-03T13:58:53;8.70;85.90
4615;DHT22;2320;51.362;6.946;2023-04-03T14:01:20;8.80;86.40
4615;DHT22;2320;51.362;6.946;2023-04-03T14:03:47;8.90;86.40
4615;DHT22;2320;51.362;6.946;2023-04-03T14:06:16;8.90;85.30
4615;DHT22;2320;51.362;6.946;2023-04-03T14:08:42;8.80;85.90
4615;DHT22;2320;51.362;6.946;2023-04-03T14:11:13;8.90;87.70
4615;DHT22;2320;51.362;6.946;2023-04-03T14:13:38;8.90;85.90
4615;DHT22;2320;51.362;6.946;2023-04-03T14:16:04;8.80;87.00
4615;DHT22;2320;51.362;6.946;2023-04-03T14:18:30;8.80;86.70
4615;DHT22;2320;51.362;6.946;2023-04-03T14:20:55;8.80;87.60
4615;DHT22;2320;51.362;6.946;2023-04-03T14:23:21;8.90;88.10
4615;DHT22;2320;51.362;6.946;2023-04-03T14:25:47;9.00;89.30
4615;DHT22;2320;51.362;6.946;2023-04-03T14:28:17;8.90;86.80
4615;DHT22;2320;51.362;6.946;2023-04-03T14:30:44;8.90;88.40
4615;DHT22;2320;51.362;6.946;2023-04-03T14:33:12;9.00;87.20
4615;DHT22;2320;51.362;6.946;2023-04-03T14:35:38;8.70;85.40
4615;DHT22;2320;51.362;6.946;2023-04-03T14:38:05;8.80;88.30
4615;DHT22;2320;51.362;6.946;2023-04-03T14:40:30;8.80;87.90
4615;DHT22;2320;51.362;6.946;2023-04-03T14:42:56;8.90;86.10
4615;DHT22;2320;51.362;6.946;2023-04-03T14:45:22;8.80;89.50
4615;DHT22;2320;51.362;6.946;2023-04-03T14:47:49;8.80;88.10
4615;DHT22;2320;51.362;6.946;2023-04-03T14:50:16;8.90;90.10
4615;DHT22;2320;51.362;6.946;2023-04-03T14:52:42;9.00;90.50
4615;DHT22;2320;51.362;6.946;2023-04-03T14:55:08;8.80;88.50
4615;DHT22;2320;51.362;6.946;2023-04-03T14:57:34;8.80;90.60
4615;DHT22;2320;51.362;6.946;2023-04-03T14:59:59;8.90;91.60
4615;DHT22;2320;51.362;6.946;2023-04-03T15:02:28;8.90;89.00
4615;DHT22;2320;51.362;6.946;2023-04-03T15:04:54;8.80;89.30
4615;DHT22;2320;51.362;6.946;2023-04-03T15:07:20;8.80;91.00
4615;DHT22;2320;51.362;6.946;2023-04-03T15:09:45;8.80;90.50
4615;DHT22;2320;51.362;6.946;2023-04-03T15:12:10;8.80;90.90
4615;DHT22;2320;51.362;6.946;2023-04-03T15:14:36;8.80;89.40
4615;DHT22;2320;51.362;6.946;2023-04-03T15:17:02;8.90;89.00
4615;DHT22;2320;51.362;6.946;2023-04-03T15:19:35;8.90;90.10
4615;DHT22;2320;51.362;6.946;2023-04-03T15:22:01;8.90;90.90
4615;DHT22;2320;51.362;6.946;2023-04-03T15:24:26;9.00;89.50
4615;DHT22;2320;51.362;6.946;2023-04-03T15:26:51;8.90;90.20
4615;DHT22;2320;51.362;6.946;2023-04-03T15:29:17;8.80;90.60
4615;DHT22;2320;51.362;6.946;2023-04-03T15:31:42;8.70;90.90
4615;DHT22;2320;51.362;6.946;2023-04-03T15:34:09;8.70;90.20
4615;DHT22;2320;51.362;6.946;2023-04-03T15:36:34;8.60;90.50
4615;DHT22;2320;51.362;6.946;2023-04-03T15:39:00;8.70;90.10
4615;DHT22;2320;51.362;6.946;2023-04-03T15:41:25;8.80;90.80
4615;DHT22;2320;51.362;6.946;2023-04-03T15:43:51;8.90;90.10
4615;DHT22;2320;51.362;6.946;2023-04-03T15:46:16;8.80;89.10
4615;DHT22;2320;51.362;6.946;2023-04-03T15:48:42;8.90;90.20
4615;DHT22;2320;51.362;6.946;2023-04-03T15:51:07;9.00;90.30
4615;DHT22;2320;51.362;6.946;2023-04-03T15:53:33;8.90;90.30
4615;DHT22;2320;51.362;6.946;2023-04-03T15:55:58;8.90;90.40
4615;DHT22;2320;51.362;6.946;2023-04-03T15:58:24;8.80;91.00
4615;DHT22;2320;51.362;6.946;2023-04-03T16:00:50;8.80;92.00
4615;DHT22;2320;51.362;6.946;2023-04-03T16:03:17;8.80;91.20
4615;DHT22;2320;51.362;6.946;2023-04-03T16:05:44;8.70;91.30
4615;DHT22;2320;51.362;6.946;2023-04-03T16:08:09;8.70;91.70
4615;DHT22;2320;51.362;6.946;2023-04-03T16:10:35;8.60;91.00
4615;DHT22;2320;51.362;6.946;2023-04-03T16:13:01;8.60;92.50
4615;DHT22;2320;51.362;6.946;2023-04-03T16:15:27;8.60;91.50
4615;DHT22;2320;51.362;6.946;2023-04-03T16:17:52;8.40;91.50
4615;DHT22;2320;51.362;6.946;2023-04-03T16:20:18;8.40;92.10
4615;DHT22;2320;51.362;6.946;2023-04-03T16:22:44;8.40;92.60
4615;DHT22;2320;51.362;6.946;2023-04-03T16:25:10;8.40;92.70
4615;DHT22;2320;51.362;6.946;2023-04-03T16:27:36;8.30;92.20
4615;DHT22;2320;51.362;6.946;2023-04-03T16:30:03;8.30;93.30
4615;DHT22;2320;51.362;6.946;2023-04-03T16:32:29;8.20;91.90
4615;DHT22;2320;51.362;6.946;2023-04-03T16:34:56;8.20;91.70
4615;DHT22;2320;51.362;6.946;2023-04-03T16:37:21;8.30;92.20
4615;DHT22;2320;51.362;6.946;2023-04-03T16:39:47;8.30;92.10
4615;DHT22;2320;51.362;6.946;2023-04-03T16:42:12;8.30;92.50
4615;DHT22;2320;51.362;6.946;2023-04-03T16:44:38;8.20;92.00
4615;DHT22;2320;51.362;6.946;2023-04-03T16:47:05;8.20;92.90
4615;DHT22;2320;51.362;6.946;2023-04-03T16:49:30;8.30;93.80
4615;DHT22;2320;51.362;6.946;2023-04-03T16:52:02;8.20;93.20
4615;DHT22;2320;51.362;6.946;2023-04-03T16:54:28;8.00;93.30
4615;DHT22;2320;51.362;6.946;2023-04-03T16:56:53;8.10;93.60
4615;DHT22;2320;51.362;6.946;2023-04-03T16:59:19;8.00;94.20
4615;DHT22;2320;51.362;6.946;2023-04-03T17:01:45;8.00;94.40
4615;DHT22;2320;51.362;6.946;2023-04-03T17:04:10;8.00;94.30
4615;DHT22;2320;51.362;6.946;2023-04-03T17:06:36;7.90;94.00
4615;DHT22;2320;51.362;6.946;2023-04-03T17:09:01;7.80;93.90
4615;DHT22;2320;51.362;6.946;2023-04-03T17:11:27;7.90;93.70
4615;DHT22;2320;51.362;6.946;2023-04-03T17:13:53;7.80;93.40
4615;DHT22;2320;51.362;6.946;2023-04-03T17:16:18;7.70;93.90
4615;DHT22;2320;51.362;6.946;2023-04-03T17:18:44;7.70;94.40
4615;DHT22;2320;51.362;6.946;2023-04-03T17:21:10;7.80;95.70
4615;DHT22;2320;51.362;6.946;2023-04-03T17:23:36;7.70;95.40
4615;DHT22;2320;51.362;6.946;2023-04-03T17:26:03;7.60;95.40
4615;DHT22;2320;51.362;6.946;2023-04-03T17:28:28;7.50;94.40
4615;DHT22;2320;51.362;6.946;2023-04-03T17:30:55;7.50;94.80
4615;DHT22;2320;51.362;6.946;2023-04-03T17:33:21;7.40;94.70
4615;DHT22;2320;51.362;6.946;2023-04-03T17:35:46;7.40;96.00